createdAt,value
2017-11-23T00:00:10.527Z,74.23
2017-11-23T00:02:38.139Z,74.26
2017-11-23T00:05:05.774Z,74.44
2017-11-23T00:07:33.379Z,74.42
2017-11-23T00:10:01.187Z,74.37
2017-11-23T00:12:28.787Z,74.57
2017-11-23T00:14:56.446Z,74.47
2017-11-23T00:17:24.046Z,74.61
2017-11-23T00:19:51.684Z,74.75
2017-11-23T00:22:19.274Z,74.79
2017-11-23T00:24:46.903Z,74.61
2017-11-23T00:27:14.502Z,74.71
2017-11-23T00:29:42.194Z,74.66
2017-11-23T00:32:09.806Z,74.88
2017-11-23T00:34:37.423Z,74.85
2017-11-23T00:37:05.030Z,75.02
2017-11-23T00:39:32.657Z,74.86
2017-11-23T00:42:00.239Z,74.83
2017-11-23T00:44:27.886Z,74.94
2017-11-23T00:46:55.470Z,74.90
2017-11-23T00:49:23.098Z,74.79
2017-11-23T00:51:50.683Z,74.79
2017-11-23T00:54:18.279Z,74.71
2017-11-23T00:56:45.906Z,74.61
2017-11-23T00:59:13.527Z,74.52
2017-11-23T01:01:41.146Z,74.50
2017-11-23T01:04:08.738Z,74.83
2017-11-23T01:06:36.370Z,74.62
2017-11-23T01:09:04.002Z,74.53
2017-11-23T01:11:31.722Z,74.63
2017-11-23T01:13:59.315Z,74.89
2017-11-23T01:16:26.972Z,75.08
2017-11-23T01:18:54.564Z,74.97
2017-11-23T01:21:22.187Z,74.93
2017-11-23T01:23:49.782Z,75.16
2017-11-23T01:26:17.417Z,75.15
2017-11-23T01:28:45.015Z,75.26
2017-11-23T01:31:12.791Z,75.18
2017-11-23T01:33:40.409Z,75.03
2017-11-23T01:36:08.051Z,75.04
2017-11-23T01:38:35.651Z,75.19
2017-11-23T01:41:03.284Z,75.08
2017-11-23T01:43:30.935Z,75.24
2017-11-23T01:45:58.635Z,75.29
2017-11-23T01:48:26.242Z,75.43
2017-11-23T01:50:53.862Z,75.40
2017-11-23T01:53:21.521Z,75.10
2017-11-23T01:55:49.179Z,74.86
2017-11-23T01:58:16.765Z,74.84
2017-11-23T02:00:44.419Z,74.47
2017-11-23T02:03:12.019Z,74.26
2017-11-23T02:05:39.650Z,74.16
2017-11-23T02:08:07.254Z,74.25
2017-11-23T02:10:34.879Z,74.22
2017-11-23T02:13:02.486Z,74.25
2017-11-23T02:15:30.118Z,74.27
2017-11-23T02:17:57.706Z,74.00
2017-11-23T02:20:25.355Z,74.11
2017-11-23T02:22:52.952Z,74.35
2017-11-23T02:25:20.566Z,74.55
2017-11-23T02:27:48.131Z,74.73
2017-11-23T02:30:15.766Z,75.20
2017-11-23T02:32:43.379Z,75.34
2017-11-23T02:35:11.014Z,75.42
2017-11-23T02:37:38.604Z,75.74
2017-11-23T02:40:06.225Z,75.33
2017-11-23T02:42:33.815Z,74.86
2017-11-23T02:45:01.435Z,73.73
2017-11-23T02:47:29.030Z,73.22
2017-11-23T02:49:56.662Z,73.08
2017-11-23T02:52:24.259Z,73.17
2017-11-23T02:54:51.907Z,73.12
2017-11-23T02:57:19.498Z,73.35
2017-11-23T02:59:47.250Z,73.79
2017-11-23T03:02:14.863Z,73.51
2017-11-23T03:04:42.486Z,73.52
2017-11-23T03:07:10.087Z,72.82
2017-11-23T03:09:37.721Z,73.08
2017-11-23T03:12:05.326Z,73.36
2017-11-23T03:14:32.951Z,73.66
2017-11-23T03:17:00.547Z,73.75
2017-11-23T03:19:28.170Z,73.85
2017-11-23T03:21:55.776Z,74.14
2017-11-23T03:24:23.414Z,74.56
2017-11-23T03:26:50.999Z,74.93
2017-11-23T03:29:18.627Z,75.23
2017-11-23T03:31:46.223Z,75.27
2017-11-23T03:34:13.923Z,74.75
2017-11-23T03:36:41.540Z,74.76
2017-11-23T03:39:09.169Z,74.78
2017-11-23T03:41:36.753Z,74.70
2017-11-23T03:44:04.374Z,74.54
2017-11-23T03:46:32.018Z,74.35
2017-11-23T03:48:59.733Z,74.22
2017-11-23T03:51:27.331Z,73.81
2017-11-23T03:53:54.950Z,73.76
2017-11-23T03:56:22.558Z,73.54
2017-11-23T03:58:50.186Z,74.20
2017-11-23T04:01:17.841Z,74.01
2017-11-23T04:03:45.481Z,74.14
2017-11-23T04:06:13.074Z,73.72
2017-11-23T04:08:40.706Z,73.44
2017-11-23T04:11:08.311Z,73.69
2017-11-23T04:13:35.938Z,73.81
2017-11-23T04:16:03.568Z,73.73
2017-11-23T04:18:31.244Z,73.82
2017-11-23T04:20:58.850Z,73.98
2017-11-23T04:23:26.466Z,74.87
2017-11-23T04:25:54.058Z,75.32
2017-11-23T04:28:21.710Z,75.21
2017-11-23T04:30:49.309Z,75.22
2017-11-23T04:33:16.951Z,75.08
2017-11-23T04:35:44.548Z,74.85
2017-11-23T04:38:12.173Z,74.93
2017-11-23T04:40:39.767Z,74.65
2017-11-23T04:43:07.389Z,74.46
2017-11-23T04:45:34.978Z,74.19
2017-11-23T04:48:02.603Z,74.18
2017-11-23T04:50:30.255Z,74.12
2017-11-23T04:52:57.875Z,73.98
2017-11-23T04:55:25.486Z,73.43
2017-11-23T04:57:53.123Z,73.04
2017-11-23T05:00:20.723Z,72.60
2017-11-23T05:02:48.414Z,72.42
2017-11-23T05:05:16.014Z,72.57
2017-11-23T05:07:43.639Z,72.42
2017-11-23T05:10:11.244Z,72.83
2017-11-23T05:12:38.878Z,72.56
2017-11-23T05:15:06.483Z,72.78
2017-11-23T05:17:34.139Z,72.34
2017-11-23T05:20:01.729Z,72.13
2017-11-23T05:22:29.376Z,71.99
2017-11-23T05:24:57.026Z,72.27
2017-11-23T05:27:24.650Z,72.30
2017-11-23T05:29:52.242Z,71.93
2017-11-23T05:32:19.866Z,72.30
2017-11-23T05:34:47.488Z,72.45
2017-11-23T05:37:15.127Z,72.39
2017-11-23T05:39:42.748Z,72.30
2017-11-23T05:42:10.402Z,72.61
2017-11-23T05:44:37.999Z,72.90
2017-11-23T05:47:05.657Z,73.04
2017-11-23T05:49:33.256Z,73.12
2017-11-23T05:52:00.982Z,73.07
2017-11-23T05:54:28.574Z,72.89
2017-11-23T05:56:56.208Z,73.11
2017-11-23T05:59:23.814Z,73.07
2017-11-23T06:01:51.451Z,72.74
2017-11-23T06:04:19.051Z,73.02
2017-11-23T06:06:46.690Z,73.06
2017-11-23T06:09:14.369Z,73.30
2017-11-23T06:11:42.003Z,73.18
2017-11-23T06:14:09.622Z,72.92
2017-11-23T06:16:37.266Z,72.62
2017-11-23T06:19:04.870Z,72.94
2017-11-23T06:21:32.511Z,72.66
2017-11-23T06:24:00.121Z,72.48
2017-11-23T06:26:27.751Z,72.33
2017-11-23T06:28:55.457Z,72.75
2017-11-23T06:31:23.086Z,72.40
2017-11-23T06:33:50.680Z,72.79
2017-11-23T06:36:18.321Z,73.04
2017-11-23T06:38:45.918Z,73.20
2017-11-23T06:41:13.562Z,73.45
2017-11-23T06:43:41.183Z,73.37
2017-11-23T06:46:08.818Z,73.56
2017-11-23T06:48:36.426Z,73.50
2017-11-23T06:51:04.087Z,73.64
2017-11-23T06:53:31.722Z,73.36
2017-11-23T06:55:59.366Z,73.52
2017-11-23T06:58:26.997Z,73.41
2017-11-23T07:00:54.617Z,73.49
2017-11-23T07:03:22.252Z,73.58
2017-11-23T07:05:49.882Z,73.77
2017-11-23T07:08:17.495Z,73.88
2017-11-23T07:10:45.139Z,74.05
2017-11-23T07:13:12.757Z,73.96
2017-11-23T07:15:40.370Z,73.93
2017-11-23T07:18:07.996Z,74.17
2017-11-23T07:20:35.647Z,74.22
2017-11-23T07:23:03.251Z,73.99
2017-11-23T07:25:30.863Z,74.37
2017-11-23T07:27:58.502Z,74.65
2017-11-23T07:30:26.140Z,74.47
2017-11-23T07:32:53.795Z,74.46
2017-11-23T07:35:21.394Z,74.62
2017-11-23T07:37:49.046Z,75.01
2017-11-23T07:40:16.666Z,75.18
2017-11-23T07:42:44.308Z,75.27
2017-11-23T07:45:11.958Z,75.29
2017-11-23T07:47:39.608Z,75.56
2017-11-23T07:50:07.212Z,75.69
2017-11-23T07:52:34.846Z,76.00
2017-11-23T07:55:02.557Z,76.03
2017-11-23T07:57:30.188Z,76.17
2017-11-23T07:59:57.795Z,76.41
2017-11-23T08:02:25.476Z,76.28
2017-11-23T08:04:53.083Z,76.13
2017-11-23T08:07:20.819Z,76.37
2017-11-23T08:09:48.429Z,76.18
2017-11-23T08:12:16.063Z,76.12
2017-11-23T08:14:43.648Z,76.09
2017-11-23T08:17:11.307Z,75.96
2017-11-23T08:19:38.899Z,75.74
2017-11-23T08:22:06.537Z,75.60
2017-11-23T08:24:34.194Z,75.49
2017-11-23T08:27:01.830Z,75.62
2017-11-23T08:29:29.426Z,75.65
2017-11-23T08:31:57.056Z,75.56
2017-11-23T08:34:24.678Z,75.37
2017-11-23T08:36:52.299Z,75.40
2017-11-23T08:39:19.937Z,74.70
2017-11-23T08:41:47.570Z,74.48
2017-11-23T08:44:15.172Z,73.77
2017-11-23T08:46:42.825Z,73.33
2017-11-23T08:49:10.427Z,72.92
2017-11-23T08:51:38.049Z,72.22
2017-11-23T08:54:05.638Z,72.34
2017-11-23T08:56:33.297Z,71.62
2017-11-23T08:59:00.908Z,71.15
2017-11-23T09:01:31.253Z,70.07
2017-11-23T09:03:58.889Z,69.88
2017-11-23T09:06:26.579Z,70.19
2017-11-23T09:08:54.185Z,68.90
2017-11-23T09:11:21.800Z,68.98
2017-11-23T09:13:49.411Z,68.35
2017-11-23T09:16:17.057Z,68.11
2017-11-23T09:18:44.660Z,68.14
2017-11-23T09:21:12.329Z,67.89
2017-11-23T09:23:39.947Z,67.91
2017-11-23T09:26:07.586Z,67.60
2017-11-23T09:28:35.250Z,66.75
2017-11-23T09:31:02.870Z,66.96
2017-11-23T09:33:30.475Z,66.59
2017-11-23T09:35:58.102Z,67.06
2017-11-23T09:38:25.698Z,65.93
2017-11-23T09:40:53.440Z,65.75
2017-11-23T09:43:21.094Z,65.59
2017-11-23T09:45:48.731Z,65.54
2017-11-23T09:48:16.331Z,65.78
2017-11-23T09:50:43.949Z,65.46
2017-11-23T09:53:11.575Z,65.48
2017-11-23T09:55:40.825Z,65.53
2017-11-23T09:58:08.433Z,65.99
2017-11-23T10:00:36.067Z,65.70
2017-11-23T10:03:03.696Z,65.50
2017-11-23T10:05:31.327Z,65.71
2017-11-23T10:07:58.923Z,65.98
2017-11-23T10:10:26.548Z,65.89
2017-11-23T10:12:54.193Z,66.43
2017-11-23T10:15:21.860Z,66.33
2017-11-23T10:17:49.479Z,66.38
2017-11-23T10:20:17.162Z,66.65
2017-11-23T10:22:44.775Z,66.90
2017-11-23T10:25:12.486Z,66.63
2017-11-23T10:27:40.108Z,66.57
2017-11-23T10:30:07.739Z,66.81
2017-11-23T10:32:35.381Z,67.07
2017-11-23T10:35:03.022Z,67.06
2017-11-23T10:37:36.148Z,67.14
2017-11-23T10:40:03.772Z,67.38
2017-11-23T10:42:31.367Z,67.49
2017-11-23T10:44:58.986Z,67.68
2017-11-23T10:47:26.587Z,67.81
2017-11-23T10:49:54.228Z,68.37
2017-11-23T10:52:21.817Z,68.52
2017-11-23T10:54:49.554Z,68.24
2017-11-23T10:57:17.166Z,68.43
2017-11-23T10:59:44.942Z,69.06
2017-11-23T11:02:12.540Z,70.17
2017-11-23T11:04:40.171Z,70.10
2017-11-23T11:07:07.845Z,71.52
2017-11-23T11:09:35.454Z,72.10
2017-11-23T11:12:03.109Z,73.00
2017-11-23T11:14:30.690Z,72.55
2017-11-23T11:16:58.317Z,73.43
2017-11-23T11:19:26.110Z,73.03
2017-11-23T11:21:53.725Z,73.05
2017-11-23T11:24:21.363Z,72.99
2017-11-23T11:26:48.959Z,73.01
2017-11-23T11:29:16.606Z,73.05
2017-11-23T11:31:44.193Z,72.72
2017-11-23T11:34:11.828Z,72.42
2017-11-23T11:36:39.437Z,72.27
2017-11-23T11:39:07.062Z,72.12
2017-11-23T11:41:34.662Z,72.18
2017-11-23T11:44:02.339Z,72.25
2017-11-23T11:46:29.994Z,72.35
2017-11-23T11:48:57.670Z,72.54
2017-11-23T11:51:25.277Z,72.74
2017-11-23T11:53:52.927Z,72.16
2017-11-23T11:56:20.525Z,72.30
2017-11-23T11:58:48.170Z,72.84
2017-11-23T12:01:15.775Z,72.62
2017-11-23T12:03:43.406Z,72.18
2017-11-23T12:06:11.060Z,72.20
2017-11-23T12:08:38.724Z,72.82
2017-11-23T12:11:06.340Z,72.31
2017-11-23T12:13:33.929Z,72.44
2017-11-23T12:19:09.503Z,72.78
2017-11-23T12:21:49.036Z,73.30
2017-11-23T12:24:28.537Z,73.59
2017-11-23T12:26:56.256Z,73.83
2017-11-23T12:29:35.558Z,73.88
2017-11-23T12:32:03.178Z,73.77
2017-11-23T12:34:30.844Z,73.74
2017-11-23T12:36:58.456Z,73.74
2017-11-23T12:39:26.112Z,73.51
2017-11-23T12:41:53.857Z,72.99
2017-11-23T12:44:21.495Z,73.36
2017-11-23T12:46:49.090Z,73.30
2017-11-23T12:49:16.755Z,73.01
2017-11-23T12:51:44.362Z,72.66
2017-11-23T12:54:12.014Z,71.94
2017-11-23T12:56:39.633Z,71.44
2017-11-23T12:59:07.266Z,70.72
2017-11-23T13:01:34.970Z,69.09
2017-11-23T13:04:02.637Z,67.96
2017-11-23T13:06:30.248Z,67.41
2017-11-23T13:08:57.898Z,67.32
2017-11-23T13:11:25.508Z,66.71
2017-11-23T13:13:53.161Z,65.44
2017-11-23T13:16:20.758Z,64.57
2017-11-23T13:18:48.366Z,64.15
2017-11-23T13:21:15.978Z,63.43
2017-11-23T13:23:43.691Z,63.98
2017-11-23T13:26:11.441Z,63.38
2017-11-23T13:28:39.058Z,64.04
2017-11-23T13:31:06.704Z,64.12
2017-11-23T13:33:34.347Z,64.07
2017-11-23T13:36:01.987Z,65.03
2017-11-23T13:38:29.620Z,65.67
2017-11-23T13:40:57.237Z,66.64
2017-11-23T13:43:24.890Z,67.47
2017-11-23T13:45:52.495Z,67.84
2017-11-23T13:48:20.155Z,68.41
2017-11-23T13:50:47.766Z,68.47
2017-11-23T13:53:15.427Z,69.00
2017-11-23T13:55:43.000Z,69.56
2017-11-23T13:58:10.658Z,69.74
2017-11-23T14:00:38.263Z,70.00
2017-11-23T14:03:05.924Z,70.21
2017-11-23T14:05:33.530Z,70.21
2017-11-23T14:08:01.160Z,70.53
2017-11-23T14:10:28.766Z,70.65
2017-11-23T14:12:56.391Z,70.57
2017-11-23T14:15:24.016Z,70.79
2017-11-23T14:17:51.659Z,70.83
2017-11-23T14:20:19.263Z,70.79
2017-11-23T14:22:46.949Z,70.83
2017-11-23T14:25:14.611Z,70.70
2017-11-23T14:27:42.235Z,70.65
2017-11-23T14:30:09.859Z,70.81
2017-11-23T14:32:37.611Z,70.82
2017-11-23T14:35:05.201Z,71.12
2017-11-23T14:37:32.918Z,71.49
2017-11-23T14:40:00.607Z,71.29
2017-11-23T14:42:32.579Z,71.45
2017-11-23T14:45:00.194Z,71.36
2017-11-23T14:47:27.843Z,71.52
2017-11-23T14:49:55.435Z,71.69
2017-11-23T14:52:23.103Z,71.83
2017-11-23T14:54:50.718Z,71.71
2017-11-23T14:57:18.360Z,71.93
2017-11-23T14:59:46.031Z,71.86
2017-11-23T15:02:13.684Z,71.63
2017-11-23T15:04:41.309Z,71.88
2017-11-23T15:07:08.966Z,71.93
2017-11-23T15:09:36.635Z,71.86
2017-11-23T15:12:04.266Z,71.50
2017-11-23T15:14:31.893Z,71.31
2017-11-23T15:16:59.548Z,71.34
2017-11-23T15:19:27.188Z,71.47
2017-11-23T15:21:54.815Z,71.45
2017-11-23T15:24:22.426Z,71.61
2017-11-23T15:26:50.066Z,71.89
2017-11-23T15:29:17.693Z,72.40
2017-11-23T15:31:45.303Z,75.11
2017-11-23T15:34:12.935Z,76.39
2017-11-23T15:36:40.534Z,75.87
2017-11-23T15:39:08.170Z,76.25
2017-11-23T15:41:35.794Z,75.35
2017-11-23T15:44:03.431Z,75.69
2017-11-23T15:46:31.046Z,75.72
2017-11-23T15:48:58.683Z,77.00
2017-11-23T15:51:26.343Z,77.92
2017-11-23T15:53:53.961Z,80.49
2017-11-23T15:56:21.630Z,82.13
2017-11-23T15:58:49.234Z,82.49
2017-11-23T16:01:16.872Z,82.60
2017-11-23T16:03:44.463Z,83.21
2017-11-23T16:06:12.314Z,83.38
2017-11-23T16:08:39.931Z,83.05
2017-11-23T16:11:07.618Z,83.64
2017-11-23T16:13:35.248Z,82.76
2017-11-23T16:16:02.911Z,85.30
2017-11-23T16:18:30.518Z,90.24
2017-11-23T16:20:58.190Z,91.42
2017-11-23T16:23:25.822Z,92.81
2017-11-23T16:25:53.495Z,93.91
2017-11-23T16:28:21.120Z,94.64
2017-11-23T16:30:48.778Z,94.98
2017-11-23T16:33:16.421Z,94.34
2017-11-23T16:35:44.065Z,94.22
2017-11-23T16:38:17.213Z,94.41
2017-11-23T16:40:48.452Z,94.38
2017-11-23T16:43:16.058Z,94.37
2017-11-23T16:45:49.344Z,93.30
2017-11-23T16:48:22.512Z,92.91
2017-11-23T16:51:09.829Z,93.21
2017-11-23T16:56:59.712Z,92.60
2017-11-23T16:59:41.114Z,92.58
2017-11-23T17:02:14.304Z,92.60
2017-11-23T17:04:47.644Z,92.64
2017-11-23T17:07:16.216Z,92.69
2017-11-23T17:09:56.655Z,92.53
2017-11-23T17:12:29.774Z,92.93
2017-11-23T17:15:03.481Z,92.90
2017-11-23T17:17:36.697Z,92.65
2017-11-23T17:20:04.406Z,92.02
2017-11-23T17:22:32.080Z,91.79
2017-11-23T17:24:59.760Z,91.81
2017-11-23T17:27:27.378Z,91.84
2017-11-23T17:29:55.028Z,91.94
2017-11-23T17:32:22.650Z,91.83
2017-11-23T17:34:50.291Z,91.58
2017-11-23T17:37:17.914Z,91.14
2017-11-23T17:39:46.211Z,91.31
2017-11-23T17:42:13.818Z,90.97
2017-11-23T17:44:41.526Z,91.07
2017-11-23T17:47:09.166Z,90.80
2017-11-23T17:49:36.823Z,90.17
2017-11-23T17:52:04.457Z,90.50
2017-11-23T17:54:32.103Z,90.49
2017-11-23T17:56:59.731Z,90.10
2017-11-23T17:59:27.389Z,89.87
2017-11-23T18:01:55.046Z,90.14
2017-11-23T18:04:22.727Z,89.93
2017-11-23T18:06:50.397Z,90.15
2017-11-23T18:09:18.119Z,90.13
2017-11-23T18:11:45.735Z,90.05
2017-11-23T18:14:13.381Z,90.22
2017-11-23T18:16:40.954Z,90.48
2017-11-23T18:19:08.679Z,90.55
2017-11-23T18:21:36.297Z,90.94
2017-11-23T18:24:03.954Z,90.84
2017-11-23T18:26:31.578Z,90.86
2017-11-23T18:28:59.314Z,90.79
2017-11-23T18:31:27.088Z,90.52
2017-11-23T18:33:54.756Z,90.59
2017-11-23T18:36:22.358Z,90.34
2017-11-23T18:38:49.998Z,90.33
2017-11-23T18:41:17.627Z,90.29
2017-11-23T18:43:45.278Z,89.06
2017-11-23T18:46:12.892Z,88.09
2017-11-23T18:48:40.586Z,87.73
2017-11-23T18:51:08.234Z,87.32
2017-11-23T18:53:35.905Z,87.13
2017-11-23T18:56:03.502Z,86.63
2017-11-23T18:58:31.190Z,86.41
2017-11-23T19:00:59.177Z,86.09
2017-11-23T19:03:27.116Z,85.98
2017-11-23T19:05:54.959Z,85.91
2017-11-23T19:08:22.855Z,85.97
2017-11-23T19:10:50.583Z,86.02
2017-11-23T19:13:18.269Z,85.01
2017-11-23T19:15:45.862Z,85.30
2017-11-23T19:18:13.518Z,84.61
2017-11-23T19:20:41.146Z,85.16
2017-11-23T19:23:08.806Z,85.90
2017-11-23T19:25:36.444Z,86.55
2017-11-23T19:28:04.111Z,87.11
2017-11-23T19:30:31.720Z,87.37
2017-11-23T19:32:59.372Z,87.47
2017-11-23T19:35:26.977Z,87.35
2017-11-23T19:37:54.786Z,87.29
2017-11-23T19:40:22.420Z,86.60
2017-11-23T19:42:50.187Z,86.43
2017-11-23T19:45:18.201Z,86.45
2017-11-23T19:47:45.976Z,86.28
2017-11-23T19:50:13.716Z,86.56
2017-11-23T19:52:41.514Z,86.33
2017-11-23T19:55:10.081Z,86.31
2017-11-23T19:57:38.003Z,86.31
2017-11-23T20:00:05.852Z,86.46
2017-11-23T20:02:33.868Z,86.38
2017-11-23T20:05:01.571Z,86.54
2017-11-23T20:07:29.625Z,86.30
2017-11-23T20:09:57.391Z,86.56
2017-11-23T20:12:25.352Z,86.48
2017-11-23T20:14:53.061Z,86.51
2017-11-23T20:17:20.759Z,86.69
2017-11-23T20:19:48.490Z,86.80
2017-11-23T20:22:16.123Z,86.65
2017-11-23T20:24:43.803Z,86.78
2017-11-23T20:27:11.624Z,86.92
2017-11-23T20:29:39.451Z,87.12
2017-11-23T20:32:07.125Z,87.32
2017-11-23T20:34:34.929Z,87.43
2017-11-23T20:37:02.609Z,87.50
2017-11-23T20:39:30.503Z,87.53
2017-11-23T20:41:58.199Z,87.54
2017-11-23T20:44:26.014Z,87.58
2017-11-23T20:46:53.779Z,89.87
2017-11-23T20:49:22.507Z,88.03
2017-11-23T20:51:50.161Z,88.11
2017-11-23T20:54:17.930Z,88.11
2017-11-23T20:56:45.979Z,88.23
2017-11-23T20:59:13.675Z,88.63
2017-11-23T21:01:41.421Z,89.30
2017-11-23T21:04:09.156Z,89.49
2017-11-23T21:06:36.854Z,89.72
2017-11-23T21:09:04.535Z,89.95
2017-11-23T21:11:32.181Z,89.58
2017-11-23T21:13:59.938Z,88.68
2017-11-23T21:16:27.919Z,88.42
2017-11-23T21:18:55.854Z,88.18
2017-11-23T21:21:23.749Z,87.90
2017-11-23T21:23:51.505Z,87.51
2017-11-23T21:26:19.259Z,87.20
2017-11-23T21:28:47.184Z,87.15
2017-11-23T21:31:14.778Z,87.16
2017-11-23T21:33:42.435Z,86.09
2017-11-23T21:36:10.089Z,85.48
2017-11-23T21:38:37.751Z,85.67
2017-11-23T21:41:05.490Z,85.79
2017-11-23T21:43:33.259Z,86.17
2017-11-23T21:46:01.090Z,86.18
2017-11-23T21:48:28.949Z,86.81
2017-11-23T21:50:56.847Z,87.07
2017-11-23T21:53:24.677Z,86.60
2017-11-23T21:55:53.441Z,86.91
2017-11-23T21:58:21.151Z,86.88
2017-11-23T22:00:49.001Z,86.37
2017-11-23T22:03:16.971Z,86.89
2017-11-23T22:05:47.036Z,87.54
2017-11-23T22:08:15.812Z,87.91
2017-11-23T22:10:43.582Z,88.05
2017-11-23T22:13:11.424Z,88.02
2017-11-23T22:15:39.308Z,87.81
2017-11-23T22:18:07.211Z,88.05
2017-11-23T22:20:34.967Z,88.78
2017-11-23T22:23:02.738Z,89.03
2017-11-23T22:25:30.370Z,89.08
2017-11-23T22:27:58.034Z,89.00
2017-11-23T22:30:25.650Z,88.83
2017-11-23T22:32:53.290Z,88.72
2017-11-23T22:35:20.947Z,88.72
2017-11-23T22:37:48.604Z,88.31
2017-11-23T22:40:16.238Z,87.93
2017-11-23T22:42:44.091Z,88.18
2017-11-23T22:45:12.837Z,88.60
2017-11-23T22:47:43.628Z,88.58
2017-11-23T22:50:12.110Z,88.67
2017-11-23T22:52:40.165Z,88.59
2017-11-23T22:55:07.928Z,88.29
2017-11-23T22:57:35.622Z,88.19
2017-11-23T23:00:03.349Z,88.60
2017-11-23T23:02:31.115Z,88.89
2017-11-23T23:04:58.763Z,88.78
2017-11-23T23:07:26.770Z,88.71
2017-11-23T23:09:54.379Z,88.56
2017-11-23T23:12:22.023Z,88.53
2017-11-23T23:14:49.626Z,88.52
2017-11-23T23:17:17.263Z,88.76
2017-11-23T23:19:45.371Z,89.01
2017-11-23T23:22:13.035Z,89.26
2017-11-23T23:24:40.663Z,88.98
2017-11-23T23:27:08.436Z,89.00
2017-11-23T23:29:36.049Z,88.76
2017-11-23T23:32:03.696Z,88.70
2017-11-23T23:34:31.298Z,88.53
2017-11-23T23:36:58.941Z,87.83
2017-11-23T23:39:26.546Z,87.50
2017-11-23T23:41:54.186Z,87.21
2017-11-23T23:44:21.782Z,86.96
2017-11-23T23:46:49.425Z,86.63
2017-11-23T23:49:17.103Z,86.26
2017-11-23T23:51:44.757Z,85.97
2017-11-23T23:54:12.345Z,85.83
2017-11-23T23:56:39.988Z,85.93
2017-11-23T23:59:07.881Z,86.00
